Lebanon, VA

5:11 PM EDT on September 20, 2014 (GMT -0400)
Virginia Highlands | Change Station
CLOSE
Current Station
Airport
Location: Abingdon,
Elevation: 2070 ft
Nearby Weather Stations

Elev 2070 ft 36.69 °N, 82.03 °W | Updated 16 minutes ago

Partly Cloudy
Partly Cloudy
80 °F
Feels Like 80 °F
N
4
Wind Variable Wind from WNW

Today
High -- | Low -- °F
--% Chance of Precip.
Yesterday
High -- | Low -- °F
Precip. -- in
7:14 AM 7:28 PM
Waning Crescent, 10% visible
Pressure 30.11 in
Visibility 10.0 miles
Clouds Clear
Dew Point 52 °F
Humidity 39%
Rainfall 0.00 in
Snow Depth Not available.
UV 3 out of 12
Pollen 5.80 out of 12
Air Quality Not available.
Flu Activity Not available.
METAR KVJI 202055Z AUTO 30003KT 10SM CLR 27/11 A3011 RMK AO2 T02650114

More Conditions Fewer Conditions

Pressure 30.11 in
Visibility 10.0 miles
Clouds Clear
Dew Point 52 °F
Humidity 39%
Rainfall 0.00 in
Snow Depth Not available.
UV 3 out of 12
Pollen 5.80 out of 12
Air Quality Not available.
Flu Activity Not available.
METAR KVJI 202055Z AUTO 30003KT 10SM CLR 27/11 A3011 RMK AO2 T02650114

More Conditions Fewer Conditions

10-Day Weather Forecast

Almanac

Astronomy

Sep. 20, 2014 Rise Set
Actual Time 7:14 AM EDT 7:28 PM EDT
Civil Twilight 6:48 AM EDT 7:54 PM EDT
Nautical Twilight 6:18 AM EDT 8:24 PM EDT
Astronomical Twilight 5:47 AM EDT 8:55 PM EDT
Moon 3:56 AM EDT 5:27 PM EDT
Length of Visible Light 13h 05m
Length of Day
12h 13m
Tomorrow will be 2m 20s shorter.
Waning Crescent, 10% of the Moon is Illuminated
Today
Waning Crescent
Sep 24
New
Oct 1
First Quarter
Oct 8
Full
Oct 15
Last Quarter

Today's Extremes

State Highs State Lows

Community

WunderPhotos

Upload Photos

1,754,947 photos uploaded!

WunderBlogs® & News

Nearby

Snow Depth

Station Depth Elevation
No new snow has been reported.

Earthquake Activity

City Distance Mag. Time & Date
No recent earthquake activity has been reported nearby.
Minimum magnitude displayed is 2.5.

Coastal Water Temperatures

Place Temperature
No Stations Reporting

Nearby Weather Stations